Portada
METAR-TAF:

METAR-TAF

Aeroports :

Marshfield, Massachusetts, Estats Units d'Amèrica

latitud: 42-05-54N, longitud: 070-40-20W, altitud: 3 m

Observació

L'informe es va fer fa 23 minuts, a les 09:35 UTC
Vent 7 kt del Nord-Est amb ràfegues de 15 kt, variant entre Nord i Est/Nord-Est
Temperatura 7°C
Humitat 93%
Pressió 1010 hPa
Visibilitat: 14.5 km
Núvols disperses a una alçada de 1400 ft
Cel ennuvolat a una alçada de 1900 ft
Cel cobert a una alçada de 2300 ft

METAR: KGHG 200935Z AUTO 04007G15KT 360V070 9SM SCT014 BKN019 OVC023 07/06 A2983 RMK AO2

Hora: 04:58 (09:58 UTC)


TAF: manca

Observacions i pronòstics meteorològics de més de 4000 aeroports (METAR i TAF).

Les estacions disponibles són els punts grocs i vermells al mapa.

Posi el ratolí al punt desitjat per veure el nom de l'estació.

Feu clic per veure les observacions i els pronòstics meteorològics.

Per canviar el mapa: feu clic els botons verds amb una creu de color negre per apropar; al botó verd amb un guió per allunyar la imatge; o en les fletxes verdes per a mapes adjacents.


METAR-TAF: